Flight Track Log - Related Links

Times and Time Zones

All times are in EST time to prevent confusion due to time zone crossing. See the SWA397 flight status page for this flight to view local times or setup timezone preferences in your user account.

Time Position Orientation Groundspeed Altitude Reporting Facility
EST Latitude Longitude Course Direction KTS MPH feet Rate Location/Type
Mon 06:59:16 AM 40.5039 -80.2769 238° Southwest 134 154 2,900  Level Cleveland Center
Mon 07:00:17 AM 40.4844 -80.3175 238° Southwest 188 216 5,000 2,390 Climbing Cleveland Center
Mon 07:01:19 AM 40.4153 -80.2722 154° Southeast 260 299 7,800 3,073 Climbing Cleveland Center
Mon 07:02:20 AM 40.3425 -80.2236 153° Southeast 294 338 11,300 3,000 Climbing Cleveland Center
Mon 07:03:21 AM 40.2658 -80.1822 158° South 340 391 13,900 3,415 Climbing Cleveland Center
Mon 07:04:23 AM 40.1511 -80.1911 183° South 346 398 18,300 3,512 Climbing Cleveland Center
Mon 07:05:24 AM 40.0519 -80.1986 183° South 356 410 21,100 2,311 Climbing Cleveland Center
Mon 07:06:25 AM 39.9469 -80.2083 184° South 375 432 23,000 1,512 Climbing Cleveland Center
Mon 07:07:27 AM 39.8406 -80.2164 183° South 383 441 24,200 1,756 Climbing Cleveland Center
Mon 07:08:28 AM 39.7325 -80.2250 184° South 390 449 26,600 2,066 Climbing Cleveland Center
Mon 07:09:29 AM 39.6175 -80.2350 184° South 410 472 28,400 1,784 Climbing Cleveland Center
Mon 07:10:19 AM 39.5111 -80.2481 185° South 431 496 29,900 1,676 Climbing Washington Center
Mon 07:11:20 AM 39.4006 -80.2544 183° South 431 496 31,500 1,835 Climbing Washington Center
Mon 07:12:20 AM 39.2728 -80.2675 185° South 447 514 33,600 1,271 Climbing Washington Center
Mon 07:13:18 AM 39.1569 -80.2950 190° South 448 516 34,000 203 Climbing Washington Center
Mon 07:14:18 AM 39.0389 -80.3300 193° South 442 509 34,000 1,279 Level Washington Center
Mon 07:15:20 AM 38.9247 -80.3681 195° South 437 503 36,600 1,672 Climbing Washington Center
Mon 07:16:20 AM 38.8153 -80.3983 192° South 426 490 37,400 1,068 Climbing Washington Center
Mon 07:17:18 AM 38.6989 -80.4411 196° South 425 489 38,700 1,271 Climbing Washington Center
Mon 07:18:18 AM 38.5869 -80.4736 193° South 425 489 39,900 650 Climbing Washington Center
Mon 07:19:18 AM 38.4708 -80.5058 192° South 420 483 40,000 50 Climbing Washington Center
Mon 07:20:19 AM 38.3486 -80.5400 192° South 420 483 40,000  Level Washington Center
Mon 07:21:20 AM 38.2353 -80.5564 186° South 420 483 40,000  Level Washington Center
Mon 07:22:20 AM 38.1200 -80.5725 186° South 420 483 40,000  Level Washington Center
Mon 07:23:18 AM 38.0067 -80.5886 186° South 420 483 40,000  Level Washington Center
Mon 07:24:18 AM 37.9039 -80.6028 186° South 420 483 40,000  Level Washington Center
Mon 07:25:18 AM 37.7903 -80.6217 187° South 420 483 40,000  Level Washington Center
Mon 07:27:35 AM 37.5128 -80.6564 186° South 421 484 40,000  Level Atlanta Center
Mon 07:28:35 AM 37.4092 -80.6714 187° South 421 484 40,000  Level Atlanta Center
Mon 07:29:35 AM 37.2928 -80.6867 186° South 421 484 40,000  Level Atlanta Center
Mon 07:30:35 AM 37.1744 -80.7047 187° South 421 484 40,000  Level Atlanta Center
Mon 07:31:35 AM 37.0644 -80.7197 186° South 433 498 40,000  Level Atlanta Center
Mon 07:32:35 AM 36.9189 -80.7336 184° South 439 505 40,000  Level Atlanta Center
Mon 07:33:35 AM 36.7961 -80.7442 184° South 444 511 40,000  Level Atlanta Center
Mon 07:34:35 AM 36.6736 -80.7594 186° South 444 511 40,000  Level Atlanta Center
Mon 07:35:35 AM 36.5550 -80.7719 185° South 439 505 40,000  Level Atlanta Center
Mon 07:36:35 AM 36.4447 -80.7817 184° South 439 505 40,000  Level Atlanta Center
Mon 07:37:35 AM 36.3242 -80.7969 186° South 439 505 40,000  Level Atlanta Center
Mon 07:38:35 AM 36.1992 -80.8072 184° South 439 505 40,000  Level Atlanta Center
Mon 07:39:35 AM 36.0786 -80.8222 186° South 439 505 40,000  Level Atlanta Center
Mon 07:40:35 AM 35.9706 -80.8342 185° South 444 511 40,000  Level Atlanta Center
Mon 07:41:35 AM 35.8356 -80.8522 186° South 444 511 40,000  Level Atlanta Center
Mon 07:42:35 AM 35.7106 -80.8647 185° South 444 511 40,000  Level Atlanta Center
Mon 07:43:35 AM 35.5814 -80.8750 184° South 438 504 40,000  Level Atlanta Center
Mon 07:44:35 AM 35.4692 -80.8869 185° South 438 504 40,000  Level Atlanta Center
Mon 07:45:35 AM 35.3442 -80.8942 183° South 444 511 40,000  Level Atlanta Center
Mon 07:49:40 AM 34.8397 -80.9550 186° South 461 531 40,000  Level Jacksonville Center
Mon 07:50:40 AM 34.7189 -80.9678 185° South 455 524 40,000  Level Jacksonville Center
Mon 07:51:40 AM 34.5939 -80.9783 184° South 449 517 40,000  Level Jacksonville Center
Mon 07:52:40 AM 34.4753 -80.9936 186° South 438 504 40,000  Level Jacksonville Center
Mon 07:53:40 AM 34.3522 -81.0064 185° South 438 504 40,000  Level Jacksonville Center
Mon 07:54:40 AM 34.2294 -81.0189 185° South 438 504 40,000  Level Jacksonville Center
Mon 07:55:40 AM 34.1044 -81.0292 184° South 432 497 40,000  Level Jacksonville Center
Mon 07:56:40 AM 33.9836 -81.0417 185° South 438 504 40,000  Level Jacksonville Center
Mon 07:57:40 AM 33.8606 -81.0544 185° South 438 504 40,000  Level Jacksonville Center
Mon 07:58:40 AM 33.7397 -81.0669 185° South 438 504 40,000  Level Jacksonville Center
Mon 07:59:40 AM 33.6167 -81.0769 184° South 438 504 40,000  Level Jacksonville Center
Mon 08:00:40 AM 33.4917 -81.0894 185° South 438 504 40,000  Level Jacksonville Center
Mon 08:01:40 AM 33.3708 -81.0994 184° South 438 504 40,000  Level Jacksonville Center
Mon 08:02:40 AM 33.2433 -81.0969 179° South 444 511 40,000  Level Jacksonville Center
Mon 08:03:40 AM 33.1203 -81.0994 181° South 444 511 40,000  Level Jacksonville Center
Mon 08:04:40 AM 32.9950 -81.0994 180° South 449 517 40,000  Level Jacksonville Center
Mon 08:05:40 AM 32.8658 -81.0994 180° South 454 522 40,000  Level Jacksonville Center
Mon 08:06:40 AM 32.7383 -81.0997 180° South 459 528 40,000  Level Jacksonville Center
Mon 08:07:40 AM 32.6006 -81.1022 181° South 446 513 40,000  Level Jacksonville Center
Mon 08:08:40 AM 32.4753 -81.1000 179° South 451 519 40,000  Level Jacksonville Center
Mon 08:09:40 AM 32.3439 -81.1000 180° South 468 539 40,000  Level Jacksonville Center
Mon 08:10:40 AM 32.2164 -81.0878 175° South 461 531 40,000  Level Jacksonville Center
Mon 08:11:40 AM 32.0925 -81.0486 165° South 461 531 40,000  Level Jacksonville Center
Mon 08:12:40 AM 31.9772 -81.0164 167° South 478 550 40,000  Level Jacksonville Center
Mon 08:13:40 AM 31.8369 -80.9803 168° South 471 542 40,000  Level Jacksonville Center
Mon 08:14:40 AM 31.7217 -80.9483 167° South 472 543 40,000  Level Jacksonville Center
Mon 08:15:40 AM 31.5831 -80.9100 167° South 467 537 40,000  Level Jacksonville Center
Mon 08:16:40 AM 31.4553 -80.8736 166° South 472 543 40,000  Level Jacksonville Center
Mon 08:17:40 AM 31.3294 -80.8422 168° South 472 543 40,000  Level Jacksonville Center
Mon 08:18:40 AM 31.1994 -80.8039 166° South 472 543 40,000  Level Jacksonville Center
Mon 08:19:40 AM 31.0756 -80.7725 168° South 466 536 40,000  Level Jacksonville Center
Mon 08:20:40 AM 30.9478 -80.7344 166° South 472 543 40,000  Level Jacksonville Center
Mon 08:21:40 AM 30.8197 -80.7011 167° South 472 543 40,000  Level Jacksonville Center
Mon 08:22:40 AM 30.6939 -80.6653 166° South 472 543 40,000  Level Jacksonville Center
Mon 08:23:40 AM 30.5658 -80.6319 167° South 472 543 40,000  Level Jacksonville Center
Mon 08:24:40 AM 30.4358 -80.5967 167° South 472 543 40,000  Level Jacksonville Center
Mon 08:25:40 AM 30.3017 -80.5614 167° South 472 543 40,000  Level Jacksonville Center
Mon 08:26:40 AM 30.1736 -80.5258 167° South 478 550 40,000  Level Jacksonville Center
Mon 08:27:40 AM 30.0414 -80.4931 168° South 478 550 40,000  Level Jacksonville Center
Mon 08:28:40 AM 29.9092 -80.4581 167° South 478 550 40,000  Level Jacksonville Center
Mon 08:29:40 AM 29.7811 -80.4231 167° South 478 550 40,000  Level Jacksonville Center
Mon 08:31:51 AM 29.5142 -80.3492 166° South 476 548 40,000  Level Miami Center
Mon 08:32:51 AM 29.3711 -80.3158 169° South 476 548 40,000  Level Miami Center
Mon 08:33:51 AM 29.2425 -80.2808 167° South 476 548 40,000  Level Miami Center
Mon 08:34:51 AM 29.1119 -80.2461 167° South 476 548 40,000  Level Miami Center
Mon 08:35:51 AM 28.9836 -80.2089 166° South 476 548 40,000  Level Miami Center
Mon 08:36:51 AM 28.8569 -80.1767 167° South 476 548 40,000  Level Miami Center
Mon 08:37:51 AM 28.7264 -80.1442 168° South 476 548 40,000  Level Miami Center
Mon 08:38:51 AM 28.6144 -80.1128 166° South 470 541 40,000 -700 Level Miami Center
Mon 08:39:51 AM 28.4756 -80.0733 166° South 470 541 38,600 -1,600 Descending Miami Center
Mon 08:40:51 AM 28.3447 -80.0411 168° South 475 547 36,800 -1,800 Descending Miami Center
Mon 08:41:51 AM 28.2139 -80.0092 168° South 475 547 35,000 -900 Descending Miami Center
Mon 08:42:51 AM 28.1019 -79.9778 166° South 475 547 35,000  Level Miami Center
Mon 08:43:51 AM 27.9794 -79.9461 167° South 458 527 35,000  Level Miami Center
Mon 08:44:51 AM 27.8403 -79.9142 169° South 453 521 35,000 -700 Level Miami Center
Mon 08:45:51 AM 27.7197 -79.8806 166° South 446 513 33,600 -1,650 Descending Miami Center
Mon 08:46:51 AM 27.5953 -79.8467 166° South 453 521 31,700 -2,600 Descending Miami Center
Mon 08:47:51 AM 27.4789 -79.8181 168° South 473 544 28,400 -3,300 Descending Miami Center
Mon 08:48:51 AM 27.3503 -79.7844 167° South 478 550 25,100 -3,000 Descending Miami Center
Mon 08:49:51 AM 27.2153 -79.7458 166° South 468 539 22,400 -2,450 Descending Miami Center
Mon 08:50:51 AM 27.0989 -79.7103 165° South 446 513 20,200 -2,200 Descending Miami Center
Mon 08:51:51 AM 26.9869 -79.6772 165° South 425 489 18,000 -1,650 Descending Miami Center
Mon 08:52:51 AM 26.8933 -79.6494 165° South 405 466 16,900 -1,450 Descending Miami Center
Mon 08:53:51 AM 26.7803 -79.6700 189° South 366 421 15,100 -2,034 Descending Miami Center
Mon 08:54:49 AM 26.6875 -79.7167 204° Southwest 358 412 12,900 -2,000 Descending Miami Center
Mon 08:54:51 AM 26.6958 -79.7097 37° Northeast 366 421 13,100 -2,032 Climbing Miami Center
Mon 08:55:51 AM 26.5989 -79.7561 203° Southwest 359 413 10,800 -2,308 Descending Miami Center
Mon 08:56:09 AM 26.5672 -79.7742 207° Southwest 349 402 10,100 -1,900 Descending Miami Center
Mon 08:56:51 AM 26.5189 -79.7939 200° South 359 413 8,900 -1,770 Descending Miami Center
Mon 08:57:10 AM 26.4808 -79.8136 205° Southwest 337 388 8,300 -900 Descending Miami Center
Mon 08:57:51 AM 26.4303 -79.8356 201° Southwest 336 387 8,000 -295 Descending Miami Center
Mon 08:58:11 AM 26.4028 -79.8511 207° Southwest 285 328 8,000  Level Miami Center
Mon 08:58:51 AM 26.3647 -79.8758 210° Southwest 301 346 8,000 -290 Level Miami Center
Mon 08:59:13 AM 26.3347 -79.9028 219° Southwest 288 331 7,700 -900 Descending Miami Center
Mon 08:59:51 AM 26.2986 -79.9389 222° Southwest 290 334 7,100 -689 Descending Miami Center
Mon 09:00:14 AM 26.2731 -79.9639 221° Southwest 288 331 7,000 -77 Descending Miami Center
Mon 09:01:09 AM 26.2156 -80.0156 219° Southwest 285 328 7,000  Level Miami Center
Mon 09:01:51 AM 26.1833 -80.0564 229° Southwest 285 328 7,000  Level Miami Center
Mon 09:02:11 AM 26.1681 -80.0836 238° Southwest 283 326 7,000 -500 Level Miami Center
Mon 09:02:51 AM 26.1544 -80.1367 254° West 273 314 6,500 -448 Descending Miami Center
Mon 09:03:18 AM 26.1450 -80.1756 255° West 257 296 6,500 -400 Level Miami Center
Mon 09:03:51 AM 26.1506 -80.2128 279° West 257 296 6,100 -885 Descending Miami Center
Mon 09:04:19 AM 26.1475 -80.2497 265° West 234 269 5,600 -800 Descending Miami Center
Mon 09:05:21 AM 26.1481 -80.3192 271° West 209 241 4,900 -872 Descending Miami Center
Mon 09:06:16 AM 26.1222 -80.3556 232° Southwest 184 212 3,900 -1,077 Descending Miami Center
Mon 09:07:18 AM 26.0808 -80.3333 154° Southeast 171 197 2,800 -976 Descending Miami Center
Mon 09:08:19 AM 26.0736 -80.2800 99° East 180 207 1,900 -844 Descending Miami Center
Mon 09:09:26 AM 26.0750 -80.2269 88° East 143 165 1,000 -806 Descending Miami Center
Mon 09:11:00 AM 26.0667 -80.1500 103° East  Level FlightAware Approximate
Mon 09:18:00 AM 26.0726 -80.1527 103° East  Level Estimated
Mon 09:19:00 AM 26.0667 -80.1500 103° East  Level FlightAware Approximate

Login

Don't have an account? Register now (free) for customized features, flight alerts, and more!